Rusty Zeller — WDF3821 — position and weather

sailwx.info

Track history (hours):
 
Tides and Currents Weather Stations Pressure Air Temp Water Temp Dewpoint Dewpoint Depression Visibility Wind Speed Wind Dir Waves Ship Positions

Rusty Zeller

Owner: Florida Marine Transporters, Inc., Mandeville, LA. More information available from US FCC via Universal Licensing System and Coast Guard Vessel Documentation Center.

Last reported at 2018-Jan-07 13:03 UTC. Time now 2018-Jan-19 09:51 UTC.
Position N 32°40' W 091°08'.
Warning: this ship's position is 11 days out of date.

Length 43 m; draft 3.2 m.

Type: Other ship. MMSI: 367444420.

Date/timePositionNaut miles runAvg speedWind from/ knotsBaromVisibWave heightAir tempDewpointWater temp
2018-Jan-07 13:03N 32°40' W 091°08'0 3.6
2018-Jan-07 13:00N 32°39' W 091°09'3 3.3
2018-Jan-07 12:08N 32°37' W 091°09'1 3.9
2018-Jan-07 12:00N 32°36' W 091°09'2 4.0
2018-Jan-07 11:30N 32°35' W 091°07'3 3.4
2018-Jan-07 10:37N 32°32' W 091°06'0 4.3
2018-Jan-07 10:30N 32°31' W 091°06'2 3.6
2018-Jan-07 10:00N 32°30' W 091°07'2 3.6
2018-Jan-07 09:30N 32°28' W 091°06'2 4.3
2018-Jan-07 09:00N 32°27' W 091°04'2 4.4
2018-Jan-07 08:30N 32°26' W 091°02'2 4.3
2018-Jan-07 08:00N 32°25' W 090°60'2 3.6
2018-Jan-07 07:30N 32°23' W 090°60'2 3.4
2018-Jan-07 07:00N 32°21' W 090°60'2 4.6
2018-Jan-07 06:30N 32°21' W 090°57'0 0.5
2018-Jan-07 06:00N 32°21' W 090°57'0 0.4
2018-Jan-07 05:30N 32°21' W 090°57'2 4.2
2018-Jan-07 05:00N 32°20' W 090°54'2 4.1
2018-Jan-07 04:30N 32°18' W 090°55'2 4.7
2018-Jan-07 04:00N 32°17' W 090°57'2 4.4
2018-Jan-07 03:30N 32°15' W 090°59'2 3.6
2018-Jan-07 03:00N 32°13' W 090°59'2 3.8
2018-Jan-07 02:30N 32°12' W 090°60'2 3.8
2018-Jan-07 02:00N 32°10' W 091°00'2 3.5
2018-Jan-07 01:30N 32°08' W 091°00'4 3.4
2018-Jan-07 00:26N 32°08' W 091°05'2 3.7
2018-Jan-07 00:00N 32°08' W 091°06'6 3.4
2018-Jan-06 22:18N 32°02' W 091°04'1 4.4
2018-Jan-06 22:00N 32°01' W 091°05'  
2018-Jan-03 08:48N 31°58' W 091°11'9 7.6
2018-Jan-03 07:34N 32°05' W 091°05'110.7
2018-Jan-03 07:30N 32°06' W 091°06'2 3.1
2018-Jan-03 06:48N 32°08' W 091°05'2 8.1
2018-Jan-03 06:30N 32°07' W 091°02'5 9.5
2018-Jan-03 06:00N 32°11' W 090°60'510.1
2018-Jan-03 05:30N 32°16' W 090°58'5 9.8
2018-Jan-03 05:00N 32°20' W 090°54'4 7.5
2018-Jan-03 04:30N 32°21' W 090°58'4 7.5
2018-Jan-03 04:00N 32°25' W 090°59'4 7.8
2018-Jan-03 03:30N 32°26' W 091°04'4 7.0
2018-Jan-03 03:00N 32°29' W 091°07'510.2
2018-Jan-03 02:30N 32°34' W 091°06'5 9.9
2018-Jan-03 01:58N 32°38' W 091°09'  
Track history (hours):
 
Tides and Currents Weather Stations Pressure Air Temp Water Temp Dewpoint Dewpoint Depression Visibility Wind Speed Wind Dir Waves Ship Positions

Rusty Zeller

Owner: Florida Marine Transporters, Inc., Mandeville, LA. More information available from US FCC via Universal Licensing System and Coast Guard Vessel Documentation Center.

Last reported at 2018-Jan-07 13:03 UTC. Time now 2018-Jan-19 09:51 UTC.
Position N 32°40' W 091°08'.
Warning: this ship's position is 11 days out of date.

Length 43 m; draft 3.2 m.

Type: Other ship. MMSI: 367444420.

Date/timePositionNaut miles runAvg speedWind from/ knotsBaromVisibWave heightAir tempDewpointWater temp
2018-Jan-07 13:03N 32°40' W 091°08'0 3.6
2018-Jan-07 13:00N 32°39' W 091°09'3 3.3
2018-Jan-07 12:08N 32°37' W 091°09'1 3.9
2018-Jan-07 12:00N 32°36' W 091°09'2 4.0
2018-Jan-07 11:30N 32°35' W 091°07'3 3.4
2018-Jan-07 10:37N 32°32' W 091°06'0 4.3
2018-Jan-07 10:30N 32°31' W 091°06'2 3.6
2018-Jan-07 10:00N 32°30' W 091°07'2 3.6
2018-Jan-07 09:30N 32°28' W 091°06'2 4.3
2018-Jan-07 09:00N 32°27' W 091°04'2 4.4
2018-Jan-07 08:30N 32°26' W 091°02'2 4.3
2018-Jan-07 08:00N 32°25' W 090°60'2 3.6
2018-Jan-07 07:30N 32°23' W 090°60'2 3.4
2018-Jan-07 07:00N 32°21' W 090°60'2 4.6
2018-Jan-07 06:30N 32°21' W 090°57'0 0.5
2018-Jan-07 06:00N 32°21' W 090°57'0 0.4
2018-Jan-07 05:30N 32°21' W 090°57'2 4.2
2018-Jan-07 05:00N 32°20' W 090°54'2 4.1
2018-Jan-07 04:30N 32°18' W 090°55'2 4.7
2018-Jan-07 04:00N 32°17' W 090°57'2 4.4
2018-Jan-07 03:30N 32°15' W 090°59'2 3.6
2018-Jan-07 03:00N 32°13' W 090°59'2 3.8
2018-Jan-07 02:30N 32°12' W 090°60'2 3.8
2018-Jan-07 02:00N 32°10' W 091°00'2 3.5
2018-Jan-07 01:30N 32°08' W 091°00'4 3.4
2018-Jan-07 00:26N 32°08' W 091°05'2 3.7
2018-Jan-07 00:00N 32°08' W 091°06'6 3.4
2018-Jan-06 22:18N 32°02' W 091°04'1 4.4
2018-Jan-06 22:00N 32°01' W 091°05'  
2018-Jan-03 08:48N 31°58' W 091°11'9 7.6
2018-Jan-03 07:34N 32°05' W 091°05'110.7
2018-Jan-03 07:30N 32°06' W 091°06'2 3.1
2018-Jan-03 06:48N 32°08' W 091°05'2 8.1
2018-Jan-03 06:30N 32°07' W 091°02'5 9.5
2018-Jan-03 06:00N 32°11' W 090°60'510.1
2018-Jan-03 05:30N 32°16' W 090°58'5 9.8
2018-Jan-03 05:00N 32°20' W 090°54'4 7.5
2018-Jan-03 04:30N 32°21' W 090°58'4 7.5
2018-Jan-03 04:00N 32°25' W 090°59'4 7.8
2018-Jan-03 03:30N 32°26' W 091°04'4 7.0
2018-Jan-03 03:00N 32°29' W 091°07'510.2
2018-Jan-03 02:30N 32°34' W 091°06'5 9.9
2018-Jan-03 01:58N 32°38' W 091°09'  

Dump ship's entire track history